sensor_id;sensor_type;location;lat;lon;timestamp;temperature;humidity
52075;DHT22;38075;53.172;5.446;2022-09-17T00:02:00;12.90;79.80
52075;DHT22;38075;53.172;5.446;2022-09-17T00:04:27;12.90;80.80
52075;DHT22;38075;53.172;5.446;2022-09-17T00:06:53;12.90;88.10
52075;DHT22;38075;53.172;5.446;2022-09-17T00:09:19;13.00;92.00
52075;DHT22;38075;53.172;5.446;2022-09-17T00:11:44;13.20;91.60
52075;DHT22;38075;53.172;5.446;2022-09-17T00:14:14;13.10;79.20
52075;DHT22;38075;53.172;5.446;2022-09-17T00:16:42;13.20;80.10
52075;DHT22;38075;53.172;5.446;2022-09-17T00:19:13;13.20;83.50
52075;DHT22;38075;53.172;5.446;2022-09-17T00:21:40;13.00;80.60
52075;DHT22;38075;53.172;5.446;2022-09-17T00:24:06;12.80;80.30
52075;DHT22;38075;53.172;5.446;2022-09-17T00:26:33;12.50;83.80
52075;DHT22;38075;53.172;5.446;2022-09-17T00:28:59;12.60;86.20
52075;DHT22;38075;53.172;5.446;2022-09-17T00:31:26;12.60;91.60
52075;DHT22;38075;53.172;5.446;2022-09-17T00:33:52;12.50;95.30
52075;DHT22;38075;53.172;5.446;2022-09-17T00:36:19;12.50;96.00
52075;DHT22;38075;53.172;5.446;2022-09-17T00:38:54;12.70;99.70
52075;DHT22;38075;53.172;5.446;2022-09-17T00:41:21;12.50;99.90
52075;DHT22;38075;53.172;5.446;2022-09-17T00:43:50;12.40;99.90
52075;DHT22;38075;53.172;5.446;2022-09-17T00:46:30;12.40;91.80
52075;DHT22;38075;53.172;5.446;2022-09-17T00:49:00;12.30;91.50
52075;DHT22;38075;53.172;5.446;2022-09-17T00:51:38;12.30;90.30
52075;DHT22;38075;53.172;5.446;2022-09-17T00:54:07;12.20;93.10
52075;DHT22;38075;53.172;5.446;2022-09-17T00:56:35;12.60;96.80
52075;DHT22;38075;53.172;5.446;2022-09-17T00:59:02;12.20;96.40
52075;DHT22;38075;53.172;5.446;2022-09-17T01:01:29;12.40;92.90
52075;DHT22;38075;53.172;5.446;2022-09-17T01:03:55;12.40;89.90
52075;DHT22;38075;53.172;5.446;2022-09-17T01:09:42;12.60;85.30
52075;DHT22;38075;53.172;5.446;2022-09-17T01:18:00;12.90;85.10
52075;DHT22;38075;53.172;5.446;2022-09-17T01:34:25;11.10;99.90
52075;DHT22;38075;53.172;5.446;2022-09-17T01:37:13;11.20;99.90
52075;DHT22;38075;53.172;5.446;2022-09-17T01:47:57;11.60;99.90
52075;DHT22;38075;53.172;5.446;2022-09-17T01:50:28;11.60;99.90
52075;DHT22;38075;53.172;5.446;2022-09-17T01:52:55;12.00;99.90
52075;DHT22;38075;53.172;5.446;2022-09-17T01:55:25;11.90;99.90
52075;DHT22;38075;53.172;5.446;2022-09-17T01:57:59;12.10;99.90
52075;DHT22;38075;53.172;5.446;2022-09-17T02:00:27;12.20;99.90
52075;DHT22;38075;53.172;5.446;2022-09-17T02:03:03;12.30;99.90
52075;DHT22;38075;53.172;5.446;2022-09-17T02:05:40;12.50;95.60
52075;DHT22;38075;53.172;5.446;2022-09-17T02:08:10;12.80;93.10
52075;DHT22;38075;53.172;5.446;2022-09-17T02:10:51;12.80;99.90
52075;DHT22;38075;53.172;5.446;2022-09-17T02:13:23;12.70;99.90
52075;DHT22;38075;53.172;5.446;2022-09-17T02:15:58;13.10;91.70
52075;DHT22;38075;53.172;5.446;2022-09-17T02:18:31;12.90;82.20
52075;DHT22;38075;53.172;5.446;2022-09-17T02:21:27;13.10;78.50
52075;DHT22;38075;53.172;5.446;2022-09-17T02:26:29;12.90;69.90
52075;DHT22;38075;53.172;5.446;2022-09-17T02:29:00;12.90;69.80
52075;DHT22;38075;53.172;5.446;2022-09-17T02:31:28;12.90;69.70
52075;DHT22;38075;53.172;5.446;2022-09-17T02:33:58;13.40;69.90
52075;DHT22;38075;53.172;5.446;2022-09-17T02:36:26;13.10;61.60
52075;DHT22;38075;53.172;5.446;2022-09-17T02:39:00;13.10;59.80
52075;DHT22;38075;53.172;5.446;2022-09-17T02:44:28;12.90;90.40
52075;DHT22;38075;53.172;5.446;2022-09-17T02:47:07;12.90;92.80
52075;DHT22;38075;53.172;5.446;2022-09-17T02:52:48;12.90;94.80
52075;DHT22;38075;53.172;5.446;2022-09-17T02:55:24;12.80;95.60
52075;DHT22;38075;53.172;5.446;2022-09-17T02:58:03;12.70;78.20
52075;DHT22;38075;53.172;5.446;2022-09-17T03:00:31;12.60;69.90
52075;DHT22;38075;53.172;5.446;2022-09-17T03:05:26;12.70;65.30
52075;DHT22;38075;53.172;5.446;2022-09-17T03:07:58;12.80;65.10
52075;DHT22;38075;53.172;5.446;2022-09-17T03:10:23;12.80;69.80
52075;DHT22;38075;53.172;5.446;2022-09-17T03:12:49;12.70;67.40
52075;DHT22;38075;53.172;5.446;2022-09-17T03:15:16;12.80;67.90
52075;DHT22;38075;53.172;5.446;2022-09-17T03:17:41;12.00;79.90
52075;DHT22;38075;53.172;5.446;2022-09-17T03:20:07;11.70;94.90
52075;DHT22;38075;53.172;5.446;2022-09-17T03:22:33;11.50;94.90
52075;DHT22;38075;53.172;5.446;2022-09-17T03:24:59;11.60;92.70
52075;DHT22;38075;53.172;5.446;2022-09-17T03:27:24;11.60;93.80
52075;DHT22;38075;53.172;5.446;2022-09-17T03:29:50;11.60;99.80
52075;DHT22;38075;53.172;5.446;2022-09-17T03:32:15;11.60;99.90
52075;DHT22;38075;53.172;5.446;2022-09-17T03:34:41;11.70;99.90
52075;DHT22;38075;53.172;5.446;2022-09-17T03:37:07;12.40;89.90
52075;DHT22;38075;53.172;5.446;2022-09-17T03:39:32;12.10;78.50
52075;DHT22;38075;53.172;5.446;2022-09-17T03:41:58;12.10;76.10
52075;DHT22;38075;53.172;5.446;2022-09-17T03:44:23;12.10;73.60
52075;DHT22;38075;53.172;5.446;2022-09-17T03:46:50;12.10;74.70
52075;DHT22;38075;53.172;5.446;2022-09-17T03:49:15;12.20;78.50
52075;DHT22;38075;53.172;5.446;2022-09-17T03:51:41;12.20;77.60
52075;DHT22;38075;53.172;5.446;2022-09-17T03:54:07;12.30;73.10
52075;DHT22;38075;53.172;5.446;2022-09-17T03:56:33;12.10;69.40
52075;DHT22;38075;53.172;5.446;2022-09-17T03:58:59;12.20;68.00
52075;DHT22;38075;53.172;5.446;2022-09-17T04:01:28;12.50;63.50
52075;DHT22;38075;53.172;5.446;2022-09-17T04:03:54;12.40;64.50
52075;DHT22;38075;53.172;5.446;2022-09-17T04:06:20;12.10;64.60
52075;DHT22;38075;53.172;5.446;2022-09-17T04:08:46;12.20;64.50
52075;DHT22;38075;53.172;5.446;2022-09-17T04:11:12;12.80;64.20
52075;DHT22;38075;53.172;5.446;2022-09-17T04:13:38;12.70;66.30
52075;DHT22;38075;53.172;5.446;2022-09-17T04:16:03;12.70;68.20
52075;DHT22;38075;53.172;5.446;2022-09-17T04:18:29;12.60;67.00
52075;DHT22;38075;53.172;5.446;2022-09-17T04:20:55;12.70;63.50
52075;DHT22;38075;53.172;5.446;2022-09-17T04:23:21;12.70;67.50
52075;DHT22;38075;53.172;5.446;2022-09-17T04:25:46;12.70;70.00
52075;DHT22;38075;53.172;5.446;2022-09-17T04:28:12;12.80;64.40
52075;DHT22;38075;53.172;5.446;2022-09-17T04:30:38;12.60;56.40
52075;DHT22;38075;53.172;5.446;2022-09-17T04:33:04;12.60;55.50
52075;DHT22;38075;53.172;5.446;2022-09-17T04:35:30;12.50;58.90
52075;DHT22;38075;53.172;5.446;2022-09-17T04:37:56;12.40;59.30
52075;DHT22;38075;53.172;5.446;2022-09-17T04:40:24;12.30;59.70
52075;DHT22;38075;53.172;5.446;2022-09-17T04:42:53;12.40;61.50
52075;DHT22;38075;53.172;5.446;2022-09-17T04:45:19;12.50;63.40
52075;DHT22;38075;53.172;5.446;2022-09-17T04:47:45;12.60;68.10
52075;DHT22;38075;53.172;5.446;2022-09-17T04:50:11;13.10;67.60
52075;DHT22;38075;53.172;5.446;2022-09-17T04:52:41;12.50;62.40
52075;DHT22;38075;53.172;5.446;2022-09-17T04:55:08;12.60;61.50
52075;DHT22;38075;53.172;5.446;2022-09-17T04:57:34;12.70;63.40
52075;DHT22;38075;53.172;5.446;2022-09-17T05:00:00;13.00;70.00
52075;DHT22;38075;53.172;5.446;2022-09-17T05:02:25;12.70;74.60
52075;DHT22;38075;53.172;5.446;2022-09-17T05:04:51;12.50;72.90
52075;DHT22;38075;53.172;5.446;2022-09-17T05:07:17;12.50;69.80
52075;DHT22;38075;53.172;5.446;2022-09-17T05:09:43;12.50;73.50
52075;DHT22;38075;53.172;5.446;2022-09-17T05:12:08;12.50;72.00
52075;DHT22;38075;53.172;5.446;2022-09-17T05:14:34;12.20;72.00
52075;DHT22;38075;53.172;5.446;2022-09-17T05:17:00;12.30;69.60
52075;DHT22;38075;53.172;5.446;2022-09-17T05:19:25;12.40;69.40
52075;DHT22;38075;53.172;5.446;2022-09-17T05:21:51;12.40;69.10
52075;DHT22;38075;53.172;5.446;2022-09-17T05:24:16;12.30;66.20
52075;DHT22;38075;53.172;5.446;2022-09-17T05:26:42;12.40;64.50
52075;DHT22;38075;53.172;5.446;2022-09-17T05:29:08;12.40;63.60
52075;DHT22;38075;53.172;5.446;2022-09-17T05:31:33;12.50;65.20
52075;DHT22;38075;53.172;5.446;2022-09-17T05:33:59;12.50;63.70
52075;DHT22;38075;53.172;5.446;2022-09-17T05:36:24;12.50;64.40
52075;DHT22;38075;53.172;5.446;2022-09-17T05:38:50;12.40;65.20
52075;DHT22;38075;53.172;5.446;2022-09-17T05:41:16;12.40;69.50
52075;DHT22;38075;53.172;5.446;2022-09-17T05:43:42;12.30;71.70
52075;DHT22;38075;53.172;5.446;2022-09-17T05:46:08;12.20;79.80
52075;DHT22;38075;53.172;5.446;2022-09-17T05:48:35;12.00;78.40
52075;DHT22;38075;53.172;5.446;2022-09-17T05:56:11;11.90;98.30
52075;DHT22;38075;53.172;5.446;2022-09-17T05:58:37;11.10;99.90
52075;DHT22;38075;53.172;5.446;2022-09-17T06:01:03;10.60;99.90
52075;DHT22;38075;53.172;5.446;2022-09-17T06:03:28;10.40;99.90
52075;DHT22;38075;53.172;5.446;2022-09-17T06:05:56;10.30;99.90
52075;DHT22;38075;53.172;5.446;2022-09-17T06:08:27;10.40;99.90
52075;DHT22;38075;53.172;5.446;2022-09-17T06:10:53;10.60;99.90
52075;DHT22;38075;53.172;5.446;2022-09-17T06:13:19;11.10;99.90
52075;DHT22;38075;53.172;5.446;2022-09-17T06:15:50;10.70;99.90
52075;DHT22;38075;53.172;5.446;2022-09-17T06:18:16;10.90;99.90
52075;DHT22;38075;53.172;5.446;2022-09-17T06:20:41;11.20;99.90
52075;DHT22;38075;53.172;5.446;2022-09-17T06:23:07;11.50;99.90
52075;DHT22;38075;53.172;5.446;2022-09-17T06:25:32;11.80;99.90
52075;DHT22;38075;53.172;5.446;2022-09-17T06:28:01;12.00;99.90
52075;DHT22;38075;53.172;5.446;2022-09-17T06:30:27;12.00;99.90
52075;DHT22;38075;53.172;5.446;2022-09-17T06:32:53;12.40;92.70
52075;DHT22;38075;53.172;5.446;2022-09-17T06:35:19;12.30;91.30
52075;DHT22;38075;53.172;5.446;2022-09-17T06:37:44;12.00;83.40
52075;DHT22;38075;53.172;5.446;2022-09-17T06:40:10;12.10;83.20
52075;DHT22;38075;53.172;5.446;2022-09-17T06:42:36;11.90;92.30
52075;DHT22;38075;53.172;5.446;2022-09-17T06:45:02;11.70;97.00
52075;DHT22;38075;53.172;5.446;2022-09-17T06:47:28;11.50;99.90
52075;DHT22;38075;53.172;5.446;2022-09-17T06:49:53;11.60;99.90
52075;DHT22;38075;53.172;5.446;2022-09-17T06:52:21;11.80;99.90
52075;DHT22;38075;53.172;5.446;2022-09-17T06:54:47;12.00;99.90
52075;DHT22;38075;53.172;5.446;2022-09-17T06:57:13;12.10;99.90
52075;DHT22;38075;53.172;5.446;2022-09-17T06:59:38;12.50;99.90
52075;DHT22;38075;53.172;5.446;2022-09-17T07:02:04;12.10;99.90
52075;DHT22;38075;53.172;5.446;2022-09-17T07:04:29;12.00;99.90
52075;DHT22;38075;53.172;5.446;2022-09-17T07:06:55;11.60;99.90
52075;DHT22;38075;53.172;5.446;2022-09-17T07:09:21;11.20;99.90
52075;DHT22;38075;53.172;5.446;2022-09-17T07:11:46;11.40;99.90
52075;DHT22;38075;53.172;5.446;2022-09-17T07:14:12;11.20;99.90
52075;DHT22;38075;53.172;5.446;2022-09-17T07:16:38;11.10;99.90
52075;DHT22;38075;53.172;5.446;2022-09-17T07:19:04;11.40;99.90
52075;DHT22;38075;53.172;5.446;2022-09-17T07:21:30;11.80;99.90
52075;DHT22;38075;53.172;5.446;2022-09-17T07:23:56;12.20;99.90
52075;DHT22;38075;53.172;5.446;2022-09-17T07:26:22;12.50;99.90
52075;DHT22;38075;53.172;5.446;2022-09-17T07:28:48;12.70;99.90
52075;DHT22;38075;53.172;5.446;2022-09-17T07:31:13;13.20;99.90
52075;DHT22;38075;53.172;5.446;2022-09-17T07:33:40;13.60;99.90
52075;DHT22;38075;53.172;5.446;2022-09-17T07:36:09;13.40;99.90
52075;DHT22;38075;53.172;5.446;2022-09-17T07:38:38;13.40;99.90
52075;DHT22;38075;53.172;5.446;2022-09-17T07:41:10;13.00;99.90
52075;DHT22;38075;53.172;5.446;2022-09-17T07:43:39;12.80;99.90
52075;DHT22;38075;53.172;5.446;2022-09-17T07:46:09;12.70;99.90
52075;DHT22;38075;53.172;5.446;2022-09-17T07:48:37;12.20;99.90
52075;DHT22;38075;53.172;5.446;2022-09-17T07:51:03;11.30;99.90
52075;DHT22;38075;53.172;5.446;2022-09-17T07:53:28;10.90;99.90
52075;DHT22;38075;53.172;5.446;2022-09-17T07:55:58;10.80;99.90
52075;DHT22;38075;53.172;5.446;2022-09-17T07:58:32;10.50;99.90
52075;DHT22;38075;53.172;5.446;2022-09-17T08:01:05;10.70;99.90
52075;DHT22;38075;53.172;5.446;2022-09-17T08:03:33;11.10;99.90
52075;DHT22;38075;53.172;5.446;2022-09-17T08:06:12;11.30;99.90
52075;DHT22;38075;53.172;5.446;2022-09-17T08:08:39;11.60;99.90
52075;DHT22;38075;53.172;5.446;2022-09-17T08:11:13;11.80;99.90
52075;DHT22;38075;53.172;5.446;2022-09-17T08:13:39;11.80;99.90
52075;DHT22;38075;53.172;5.446;2022-09-17T08:16:16;11.20;99.90
52075;DHT22;38075;53.172;5.446;2022-09-17T08:18:43;10.90;99.90
52075;DHT22;38075;53.172;5.446;2022-09-17T08:21:15;10.60;99.90
52075;DHT22;38075;53.172;5.446;2022-09-17T08:23:41;10.40;99.90
52075;DHT22;38075;53.172;5.446;2022-09-17T08:26:20;10.30;99.90
52075;DHT22;38075;53.172;5.446;2022-09-17T08:28:49;10.40;99.90
52075;DHT22;38075;53.172;5.446;2022-09-17T08:31:16;10.60;99.90
52075;DHT22;38075;53.172;5.446;2022-09-17T08:33:43;10.90;99.90
52075;DHT22;38075;53.172;5.446;2022-09-17T08:36:10;11.30;99.90
52075;DHT22;38075;53.172;5.446;2022-09-17T08:38:37;11.60;99.90
52075;DHT22;38075;53.172;5.446;2022-09-17T08:41:23;11.40;99.90
52075;DHT22;38075;53.172;5.446;2022-09-17T08:46:49;11.80;99.90
52075;DHT22;38075;53.172;5.446;2022-09-17T08:49:29;12.30;99.90
52075;DHT22;38075;53.172;5.446;2022-09-17T09:00:18;12.80;99.90
52075;DHT22;38075;53.172;5.446;2022-09-17T09:05:27;13.00;99.90
52075;DHT22;38075;53.172;5.446;2022-09-17T09:08:04;12.90;99.90
52075;DHT22;38075;53.172;5.446;2022-09-17T09:26:17;13.90;99.90
52075;DHT22;38075;53.172;5.446;2022-09-17T09:29:03;13.60;99.90
52075;DHT22;38075;53.172;5.446;2022-09-17T09:34:01;12.70;99.90
52075;DHT22;38075;53.172;5.446;2022-09-17T09:36:29;13.00;99.90
52075;DHT22;38075;53.172;5.446;2022-09-17T09:39:03;13.10;99.90
52075;DHT22;38075;53.172;5.446;2022-09-17T09:41:41;13.00;99.90
52075;DHT22;38075;53.172;5.446;2022-09-17T09:44:15;13.40;99.90
52075;DHT22;38075;53.172;5.446;2022-09-17T09:49:59;14.00;90.40
52075;DHT22;38075;53.172;5.446;2022-09-17T10:04:41;14.10;94.70
52075;DHT22;38075;53.172;5.446;2022-09-17T10:07:41;14.00;93.00
52075;DHT22;38075;53.172;5.446;2022-09-17T10:18:39;13.90;99.90
52075;DHT22;38075;53.172;5.446;2022-09-17T10:21:54;14.00;91.40
52075;DHT22;38075;53.172;5.446;2022-09-17T11:27:00;14.70;63.80
52075;DHT22;38075;53.172;5.446;2022-09-17T11:36:45;15.20;57.50
52075;DHT22;38075;53.172;5.446;2022-09-17T11:43:32;14.60;48.70
52075;DHT22;38075;53.172;5.446;2022-09-17T11:46:20;14.70;47.70
52075;DHT22;38075;53.172;5.446;2022-09-17T11:53:56;13.10;94.10
52075;DHT22;38075;53.172;5.446;2022-09-17T11:56:45;12.60;99.90
52075;DHT22;38075;53.172;5.446;2022-09-17T12:02:23;13.10;70.00
52075;DHT22;38075;53.172;5.446;2022-09-17T12:13:06;14.80;57.90
52075;DHT22;38075;53.172;5.446;2022-09-17T12:19:20;15.00;56.70
52075;DHT22;38075;53.172;5.446;2022-09-17T12:21:54;15.20;58.00
52075;DHT22;38075;53.172;5.446;2022-09-17T12:24:28;14.90;60.30
52075;DHT22;38075;53.172;5.446;2022-09-17T12:27:29;14.30;62.40
52075;DHT22;38075;53.172;5.446;2022-09-17T12:30:12;14.00;59.40
52075;DHT22;38075;53.172;5.446;2022-09-17T12:41:53;14.90;63.30
52075;DHT22;38075;53.172;5.446;2022-09-17T12:49:52;14.80;56.30
52075;DHT22;38075;53.172;5.446;2022-09-17T12:52:42;14.30;61.50
52075;DHT22;38075;53.172;5.446;2022-09-17T12:55:39;13.30;99.90
52075;DHT22;38075;53.172;5.446;2022-09-17T13:06:56;11.40;99.90
52075;DHT22;38075;53.172;5.446;2022-09-17T13:27:40;12.50;99.90
52075;DHT22;38075;53.172;5.446;2022-09-17T14:22:26;13.60;99.90
52075;DHT22;38075;53.172;5.446;2022-09-17T14:24:53;13.70;99.90
52075;DHT22;38075;53.172;5.446;2022-09-17T14:27:57;13.60;99.90
52075;DHT22;38075;53.172;5.446;2022-09-17T14:30:29;13.30;99.90
52075;DHT22;38075;53.172;5.446;2022-09-17T14:33:13;13.60;99.90
52075;DHT22;38075;53.172;5.446;2022-09-17T14:48:36;14.70;88.70
52075;DHT22;38075;53.172;5.446;2022-09-17T15:04:20;12.70;99.90
52075;DHT22;38075;53.172;5.446;2022-09-17T15:06:46;12.80;99.90
52075;DHT22;38075;53.172;5.446;2022-09-17T15:09:23;13.00;99.90
52075;DHT22;38075;53.172;5.446;2022-09-17T15:11:53;13.00;99.90
52075;DHT22;38075;53.172;5.446;2022-09-17T15:14:21;13.40;99.90
52075;DHT22;38075;53.172;5.446;2022-09-17T15:16:50;13.20;99.90
52075;DHT22;38075;53.172;5.446;2022-09-17T15:19:25;13.20;99.80
52075;DHT22;38075;53.172;5.446;2022-09-17T15:21:54;13.20;96.20
52075;DHT22;38075;53.172;5.446;2022-09-17T19:57:32;12.20;99.90
52075;DHT22;38075;53.172;5.446;2022-09-17T19:59:58;12.00;99.90
52075;DHT22;38075;53.172;5.446;2022-09-17T20:02:24;11.90;99.90
52075;DHT22;38075;53.172;5.446;2022-09-17T20:04:52;12.20;99.90
52075;DHT22;38075;53.172;5.446;2022-09-17T20:07:21;12.10;99.90
52075;DHT22;38075;53.172;5.446;2022-09-17T22:40:49;11.80;99.90
52075;DHT22;38075;53.172;5.446;2022-09-17T22:43:15;11.70;99.90
52075;DHT22;38075;53.172;5.446;2022-09-17T22:45:40;11.80;99.90
52075;DHT22;38075;53.172;5.446;2022-09-17T22:48:09;11.70;99.90
